Time;durP1;ratioP1;P1;durP2;ratioP2;P2;SDS_P1;SDS_P2;PMS_P1;PMS_P2;Temp;Humidity;BMP_temperature;BMP_pressure;BME280_temperature;BME280_humidity;BME280_pressure;Samples;Min_cycle;Max_cycle;Signal;HPM_P1;HPM_P2
2023/03/24 00:01:14;;;;;;;5.30;2.00;;;11.70;99.90;;;;;;4995825;28;20873;-81
2023/03/24 00:03:44;;;;;;;3.03;1.80;;;11.70;99.90;;;;;;4992557;28;20486;-80
2023/03/24 00:06:13;;;;;;;3.50;1.90;;;11.70;99.90;;;;;;4998657;28;20474;-80
2023/03/24 00:08:42;;;;;;;3.20;1.70;;;11.70;99.90;;;;;;4996457;28;20438;-79
2023/03/24 00:11:11;;;;;;;4.37;2.40;;;11.70;99.90;;;;;;4996301;28;20482;-79
2023/03/24 00:13:39;;;;;;;3.07;1.97;;;11.70;99.90;;;;;;4989714;28;20546;-78
2023/03/24 00:16:08;;;;;;;3.90;1.90;;;11.70;99.90;;;;;;4996133;28;20558;-79
2023/03/24 00:18:35;;;;;;;3.70;1.70;;;11.70;99.90;;;;;;4993166;28;20472;-81
2023/03/24 00:21:03;;;;;;;3.40;2.20;;;11.70;99.90;;;;;;4995268;28;20451;-81
2023/03/24 00:23:31;;;;;;;3.63;1.87;;;11.70;99.90;;;;;;4995642;28;20446;-80
2023/03/24 00:26:04;;;;;;;5.50;1.80;;;11.70;99.90;;;;;;4996220;28;20622;-78
2023/03/24 00:28:33;;;;;;;4.10;2.40;;;11.70;99.90;;;;;;4994950;28;21022;-79
2023/03/24 00:31:01;;;;;;;4.20;1.70;;;11.70;99.90;;;;;;4994990;28;20474;-80
2023/03/24 00:33:30;;;;;;;3.33;1.50;;;11.70;99.90;;;;;;4995809;28;20490;-80
2023/03/24 00:35:57;;;;;;;6.37;2.50;;;11.70;99.90;;;;;;4995782;28;20524;-80
2023/03/24 00:38:25;;;;;;;2.60;2.03;;;11.70;99.90;;;;;;4989134;28;20486;-80
2023/03/24 00:40:52;;;;;;;2.43;1.53;;;11.70;99.90;;;;;;4976027;28;20447;-81
2023/03/24 00:43:21;;;;;;;3.60;1.70;;;11.70;99.90;;;;;;4985312;28;20482;-80
2023/03/24 00:45:48;;;;;;;3.53;2.03;;;11.70;99.90;;;;;;4995789;28;20517;-82
2023/03/24 00:48:17;;;;;;;3.30;1.77;;;11.70;99.90;;;;;;4995548;28;20494;-79
2023/03/24 00:50:45;;;;;;;2.77;1.50;;;11.80;99.90;;;;;;4995126;28;20546;-79
2023/03/24 00:53:14;;;;;;;3.23;2.10;;;11.80;99.90;;;;;;4995227;28;20545;-82
2023/03/24 00:55:41;;;;;;;3.57;1.50;;;11.80;99.90;;;;;;4995254;28;20560;-81
2023/03/24 00:58:08;;;;;;;6.10;1.80;;;11.80;99.90;;;;;;4995437;28;20453;-80
2023/03/24 01:00:40;;;;;;;3.40;1.93;;;11.80;99.90;;;;;;4995618;28;20457;-80
2023/03/24 01:03:08;;;;;;;2.37;2.00;;;11.80;99.90;;;;;;4995814;28;20579;-80
2023/03/24 01:05:36;;;;;;;4.70;2.17;;;11.80;99.90;;;;;;4995503;28;20481;-80
2023/03/24 01:08:05;;;;;;;3.30;1.80;;;11.80;99.90;;;;;;4995783;28;20465;-80
2023/03/24 01:10:34;;;;;;;4.20;2.00;;;11.80;99.90;;;;;;4995621;28;20452;-80
2023/03/24 01:13:01;;;;;;;2.63;2.10;;;11.80;99.90;;;;;;4995488;28;20537;-80
2023/03/24 01:15:32;;;;;;;3.40;1.97;;;11.90;99.90;;;;;;4995991;28;20507;-80
2023/03/24 01:18:00;;;;;;;3.40;1.80;;;11.90;99.90;;;;;;4996207;28;20550;-79
2023/03/24 01:20:31;;;;;;;3.20;2.00;;;11.90;99.90;;;;;;4995837;28;20586;-83
2023/03/24 01:22:59;;;;;;;4.00;1.90;;;11.90;99.90;;;;;;4995658;28;20467;-79
2023/03/24 01:25:26;;;;;;;6.73;2.17;;;11.90;99.90;;;;;;4996028;28;20499;-82
2023/03/24 01:28:00;;;;;;;3.57;1.90;;;12.00;99.90;;;;;;4996021;28;20807;-79
2023/03/24 01:30:29;;;;;;;2.60;1.77;;;11.90;99.90;;;;;;4995661;28;20517;-81
2023/03/24 01:32:57;;;;;;;2.57;2.07;;;11.90;99.90;;;;;;4995963;28;20489;-80
2023/03/24 01:35:26;;;;;;;4.40;2.07;;;11.90;99.90;;;;;;4995285;28;21007;-82
2023/03/24 01:37:53;;;;;;;2.40;1.83;;;11.90;99.90;;;;;;4995880;28;20490;-80
2023/03/24 01:40:24;;;;;;;6.17;2.10;;;11.90;99.90;;;;;;4995345;28;20542;-83
2023/03/24 01:42:51;;;;;;;6.13;2.27;;;11.90;99.90;;;;;;4995772;28;20457;-79
2023/03/24 01:45:51;;;;;;;2.77;2.17;;;11.90;99.90;;;;;;4996232;28;20501;-80
2023/03/24 01:48:22;;;;;;;3.00;2.53;;;11.90;99.90;;;;;;4996199;28;20452;-81
2023/03/24 01:50:55;;;;;;;2.90;1.90;;;11.90;99.90;;;;;;4999526;28;20534;-80
2023/03/24 01:53:24;;;;;;;4.27;2.43;;;11.90;99.90;;;;;;4999649;28;20492;-80
2023/03/24 01:55:51;;;;;;;3.93;2.80;;;11.90;99.90;;;;;;5000122;28;20509;-81
2023/03/24 01:58:19;;;;;;;3.13;1.90;;;11.90;99.90;;;;;;4999238;28;20498;-80
2023/03/24 02:00:46;;;;;;;3.80;2.40;;;11.90;99.90;;;;;;4998806;28;20533;-80
2023/03/24 02:03:17;;;;;;;4.33;2.23;;;11.90;99.90;;;;;;4999160;28;20455;-80
2023/03/24 02:05:46;;;;;;;3.00;2.70;;;11.90;99.90;;;;;;4999466;28;21019;-82
2023/03/24 02:08:19;;;;;;;4.30;2.50;;;11.90;99.90;;;;;;4998926;28;20465;-81
2023/03/24 02:10:47;;;;;;;2.60;2.40;;;11.90;99.90;;;;;;4998268;28;20444;-79
2023/03/24 02:13:14;;;;;;;2.70;1.90;;;11.90;99.90;;;;;;4998527;28;20678;-80
2023/03/24 02:15:46;;;;;;;7.77;2.57;;;12.00;99.90;;;;;;4999224;28;21025;-80
2023/03/24 02:18:19;;;;;;;4.93;2.70;;;12.00;99.90;;;;;;4999367;28;20462;-80
2023/03/24 02:21:24;;;;;;;4.53;2.20;;;11.90;99.90;;;;;;4998285;28;20445;-81
2023/03/24 02:24:43;;;;;;;3.43;2.33;;;12.00;99.90;;;;;;4999338;28;20488;-81
2023/03/24 02:27:40;;;;;;;5.00;2.50;;;11.90;99.90;;;;;;4979411;28;20522;-80
2023/03/24 02:31:00;;;;;;;4.67;2.30;;;11.90;99.90;;;;;;4981506;28;20553;-82
2023/03/24 02:33:56;;;;;;;4.93;2.43;;;11.90;99.90;;;;;;4983608;28;20492;-82
2023/03/24 02:37:20;;;;;;;3.40;2.30;;;12.00;99.90;;;;;;4991562;28;20507;-81
2023/03/24 02:40:15;;;;;;;3.53;1.83;;;12.00;99.90;;;;;;4962662;28;20472;-79
2023/03/24 02:42:52;;;;;;;5.07;2.70;;;12.00;99.90;;;;;;4979267;28;20549;-81
2023/03/24 02:45:27;;;;;;;3.10;2.23;;;12.00;99.90;;;;;;4999403;28;20509;-81
2023/03/24 02:48:09;;;;;;;2.57;2.00;;;12.10;99.90;;;;;;4998620;28;20478;-81
2023/03/24 02:50:42;;;;;;;5.00;2.50;;;12.00;99.90;;;;;;4997975;28;20439;-80
2023/03/24 02:53:15;;;;;;;5.20;2.33;;;12.00;99.90;;;;;;4998900;28;20485;-81
2023/03/24 02:55:52;;;;;;;2.50;2.10;;;12.10;99.90;;;;;;4998521;28;20479;-81
2023/03/24 02:58:26;;;;;;;3.37;2.70;;;12.00;99.90;;;;;;4998850;28;20514;-81
2023/03/24 03:00:58;;;;;;;3.43;3.10;;;12.10;99.90;;;;;;4997758;28;20945;-81
2023/03/24 03:03:33;;;;;;;4.60;2.90;;;12.10;99.90;;;;;;4998212;28;21221;-80
2023/03/24 03:06:03;;;;;;;3.90;2.87;;;12.10;99.90;;;;;;4998574;28;20530;-83
2023/03/24 03:08:33;;;;;;;3.27;2.70;;;12.10;99.90;;;;;;4998881;28;20864;-84
2023/03/24 03:11:03;;;;;;;4.13;3.00;;;12.10;99.90;;;;;;4997649;28;20530;-83
2023/03/24 03:13:34;;;;;;;2.97;2.53;;;12.10;99.90;;;;;;4998129;28;20459;-83
2023/03/24 03:16:05;;;;;;;3.60;2.80;;;12.20;99.90;;;;;;4998073;28;21022;-80
2023/03/24 03:18:38;;;;;;;3.90;2.30;;;12.20;99.90;;;;;;4998039;28;20463;-82
2023/03/24 03:21:10;;;;;;;3.57;2.50;;;12.20;99.90;;;;;;4997587;28;20440;-81
2023/03/24 03:23:41;;;;;;;3.30;2.50;;;12.20;99.90;;;;;;4979461;28;20971;-81
2023/03/24 03:26:15;;;;;;;3.30;3.00;;;12.20;99.90;;;;;;4978892;28;20556;-80
2023/03/24 03:28:48;;;;;;;4.00;2.40;;;12.20;99.90;;;;;;4978598;28;20467;-80
2023/03/24 03:31:22;;;;;;;3.43;2.53;;;12.20;99.90;;;;;;4978163;28;20502;-81
2023/03/24 03:33:53;;;;;;;2.80;2.10;;;12.20;99.90;;;;;;4997623;28;20522;-79
2023/03/24 03:36:26;;;;;;;2.50;2.00;;;12.30;99.90;;;;;;4997717;28;20506;-81
2023/03/24 03:38:58;;;;;;;3.93;3.03;;;12.30;99.90;;;;;;4978707;28;20531;-83
2023/03/24 03:41:27;;;;;;;4.73;3.07;;;12.40;99.90;;;;;;4977127;28;20469;-83
2023/03/24 03:43:54;;;;;;;4.23;2.50;;;12.30;99.90;;;;;;4997467;28;20494;-81
2023/03/24 03:46:21;;;;;;;4.10;2.20;;;12.40;99.90;;;;;;4996965;28;20509;-79
2023/03/24 03:48:48;;;;;;;2.70;2.20;;;12.40;99.90;;;;;;4997434;28;20521;-81
2023/03/24 03:51:17;;;;;;;2.80;2.50;;;12.40;99.90;;;;;;4996402;28;20451;-80
2023/03/24 03:53:47;;;;;;;3.70;3.10;;;12.40;99.90;;;;;;4997416;28;20460;-80
2023/03/24 03:56:17;;;;;;;3.10;2.77;;;12.40;99.90;;;;;;4993234;28;20520;-82
2023/03/24 03:58:46;;;;;;;4.90;2.10;;;12.40;99.90;;;;;;4993122;28;20457;-79
2023/03/24 04:01:15;;;;;;;3.87;2.20;;;12.40;99.90;;;;;;4995347;28;20839;-79
2023/03/24 04:04:06;;;;;;;2.53;2.30;;;12.50;99.90;;;;;;4995593;28;20454;-79
2023/03/24 04:06:39;;;;;;;5.60;2.97;;;12.40;99.90;;;;;;4987957;28;20525;-79
2023/03/24 04:09:20;;;;;;;3.80;2.90;;;12.50;99.90;;;;;;4996565;28;20459;-80
2023/03/24 04:12:02;;;;;;;4.00;3.40;;;12.50;99.90;;;;;;4995819;28;20928;-81
2023/03/24 04:15:01;;;;;;;4.27;3.10;;;12.40;99.90;;;;;;4996357;28;20980;-79
2023/03/24 04:17:45;;;;;;;5.00;3.93;;;12.40;99.90;;;;;;4967376;28;20839;-79
2023/03/24 04:20:16;;;;;;;6.50;3.40;;;12.40;99.90;;;;;;4991105;28;20456;-79
2023/03/24 04:23:01;;;;;;;5.93;3.80;;;12.40;99.90;;;;;;4995095;28;20828;-79
2023/03/24 04:25:35;;;;;;;5.37;3.47;;;12.30;99.90;;;;;;4995680;28;20479;-79
2023/03/24 04:28:09;;;;;;;6.20;4.50;;;12.40;99.90;;;;;;4995078;28;20451;-79
2023/03/24 04:30:42;;;;;;;4.90;3.97;;;12.30;99.90;;;;;;4994601;28;20460;-77
2023/03/24 04:33:16;;;;;;;4.60;3.80;;;12.30;99.90;;;;;;4994124;28;20455;-78
2023/03/24 04:35:48;;;;;;;4.30;3.50;;;12.30;99.90;;;;;;5015710;23;20528;-82
2023/03/24 04:38:22;;;;;;;6.57;4.00;;;12.30;99.90;;;;;;5021759;28;20517;-82
2023/03/24 04:40:51;;;;;;;4.37;3.60;;;12.30;99.90;;;;;;5023328;28;20917;-82
2023/03/24 04:43:23;;;;;;;4.60;3.40;;;12.30;99.90;;;;;;5016254;28;20456;-82
2023/03/24 04:45:56;;;;;;;4.23;2.37;;;12.30;99.90;;;;;;5014135;28;20545;-81
2023/03/24 04:48:24;;;;;;;3.60;2.70;;;12.30;99.90;;;;;;5003173;28;20459;-81
2023/03/24 04:50:55;;;;;;;7.93;3.73;;;12.30;99.90;;;;;;4993285;28;20468;-81
2023/03/24 04:53:22;;;;;;;4.90;2.20;;;12.20;99.90;;;;;;4996053;28;20459;-80
2023/03/24 04:56:16;;;;;;;3.50;2.27;;;12.20;99.90;;;;;;4997829;28;21032;-82
2023/03/24 04:58:43;;;;;;;4.87;2.87;;;12.20;99.90;;;;;;4994771;28;20515;-82
2023/03/24 05:01:12;;;;;;;3.13;2.53;;;12.20;99.90;;;;;;5004432;28;20539;-81
2023/03/24 05:03:40;;;;;;;2.80;2.50;;;12.20;99.90;;;;;;5005447;28;20456;-82
2023/03/24 05:06:10;;;;;;;3.97;2.47;;;12.10;99.90;;;;;;4992071;28;20484;-84
2023/03/24 05:08:37;;;;;;;5.57;3.03;;;12.10;99.90;;;;;;4987666;28;20635;-83
2023/03/24 05:11:04;;;;;;;3.43;2.63;;;12.10;99.90;;;;;;4999853;28;20450;-84
2023/03/24 05:13:31;;;;;;;4.07;2.80;;;12.10;99.90;;;;;;5005148;28;20921;-84
2023/03/24 05:15:58;;;;;;;5.40;3.50;;;12.10;99.90;;;;;;5004891;28;20519;-83
2023/03/24 05:18:26;;;;;;;3.80;2.77;;;12.10;99.90;;;;;;5004759;28;20456;-84
2023/03/24 05:20:53;;;;;;;4.57;3.30;;;12.10;99.90;;;;;;5004872;28;20489;-84
2023/03/24 05:23:20;;;;;;;4.60;2.53;;;12.10;99.90;;;;;;5004213;28;20451;-82
2023/03/24 05:25:47;;;;;;;3.70;3.10;;;12.00;99.90;;;;;;5013309;28;20501;-83
2023/03/24 05:28:14;;;;;;;2.90;2.60;;;12.00;99.90;;;;;;5006540;28;20470;-82
2023/03/24 05:30:41;;;;;;;4.63;2.87;;;11.90;99.90;;;;;;5004989;28;20898;-82
2023/03/24 05:33:08;;;;;;;5.90;2.70;;;11.90;99.90;;;;;;5005382;28;20554;-82
2023/03/24 05:35:36;;;;;;;4.20;2.43;;;11.80;99.90;;;;;;5001733;28;20571;-83
2023/03/24 05:38:03;;;;;;;4.43;2.10;;;11.70;99.90;;;;;;4990965;28;20534;-82
2023/03/24 05:40:31;;;;;;;5.67;2.20;;;11.70;99.90;;;;;;5005158;28;20485;-87
2023/03/24 05:42:58;;;;;;;4.77;1.97;;;11.60;99.90;;;;;;5001682;28;20537;-82
2023/03/24 05:45:25;;;;;;;3.80;1.57;;;11.50;99.90;;;;;;5001772;28;20593;-84
2023/03/24 05:47:52;;;;;;;5.60;2.03;;;11.40;99.90;;;;;;4994100;28;20492;-82
2023/03/24 05:50:18;;;;;;;5.40;1.87;;;11.30;99.90;;;;;;4996619;28;20462;-82
2023/03/24 05:52:47;;;;;;;3.27;1.57;;;11.20;99.90;;;;;;4996223;28;20458;-83
2023/03/24 05:55:14;;;;;;;4.17;2.10;;;11.20;99.90;;;;;;5002860;28;20568;-82
2023/03/24 05:57:42;;;;;;;5.40;2.50;;;11.10;99.90;;;;;;5001098;28;20486;-81
2023/03/24 06:00:15;;;;;;;5.10;2.00;;;11.10;99.90;;;;;;5004276;28;20459;-81
2023/03/24 06:02:42;;;;;;;2.67;1.57;;;11.10;99.90;;;;;;5005138;28;20450;-82
2023/03/24 06:05:10;;;;;;;2.60;1.70;;;11.10;99.90;;;;;;5002952;28;20506;-83
2023/03/24 06:07:41;;;;;;;4.07;1.90;;;11.10;99.90;;;;;;4979712;28;20458;-81
2023/03/24 06:10:10;;;;;;;3.80;1.90;;;11.00;99.90;;;;;;4972684;28;20486;-82
2023/03/24 06:12:37;;;;;;;6.57;2.50;;;11.00;99.90;;;;;;4997994;28;20532;-83
2023/03/24 06:15:05;;;;;;;4.87;2.40;;;11.00;99.90;;;;;;5007487;28;20496;-83
2023/03/24 06:17:31;;;;;;;4.30;2.23;;;11.00;99.90;;;;;;5008768;28;20549;-83
2023/03/24 06:20:04;;;;;;;7.03;2.10;;;10.90;99.90;;;;;;5009185;28;20518;-82
2023/03/24 06:22:33;;;;;;;5.00;1.90;;;10.90;99.90;;;;;;5006599;28;20455;-84
2023/03/24 06:25:01;;;;;;;5.20;1.70;;;10.90;99.90;;;;;;5003715;28;20460;-81
2023/03/24 06:27:29;;;;;;;2.97;2.07;;;10.80;99.90;;;;;;4999712;28;20495;-83
2023/03/24 06:29:56;;;;;;;3.40;1.97;;;10.90;99.90;;;;;;4994900;28;20463;-83
2023/03/24 06:32:24;;;;;;;6.27;2.13;;;10.90;99.90;;;;;;4990333;28;20474;-82
2023/03/24 06:34:51;;;;;;;5.30;2.00;;;10.80;99.90;;;;;;5004255;28;20494;-82
2023/03/24 06:37:19;;;;;;;4.13;2.20;;;10.70;99.90;;;;;;4997449;28;20728;-82
2023/03/24 06:39:46;;;;;;;3.90;1.87;;;10.70;99.90;;;;;;5010087;28;20450;-83
2023/03/24 06:42:13;;;;;;;7.10;2.90;;;10.70;99.90;;;;;;5005994;28;20990;-81
2023/03/24 06:44:42;;;;;;;5.13;2.10;;;10.60;99.90;;;;;;5002169;28;20461;-82
2023/03/24 06:47:09;;;;;;;3.30;1.77;;;10.60;99.90;;;;;;4996896;28;20484;-83
2023/03/24 06:49:36;;;;;;;4.63;2.00;;;10.60;99.90;;;;;;5000146;28;20450;-84
2023/03/24 06:52:03;;;;;;;5.00;2.00;;;10.60;99.90;;;;;;5004557;28;20572;-83
2023/03/24 06:54:30;;;;;;;6.83;1.80;;;10.70;99.90;;;;;;5001202;28;20497;-83
2023/03/24 06:56:57;;;;;;;8.97;2.77;;;10.70;99.90;;;;;;4994533;28;20545;-83
2023/03/24 06:59:24;;;;;;;3.60;2.00;;;10.70;99.90;;;;;;5003674;28;20463;-82
2023/03/24 07:01:52;;;;;;;5.20;2.00;;;10.70;99.90;;;;;;4997975;28;20850;-83
2023/03/24 07:04:20;;;;;;;3.67;1.80;;;10.80;99.90;;;;;;5006415;28;20477;-83
2023/03/24 07:06:47;;;;;;;4.27;2.10;;;10.80;99.90;;;;;;4993078;28;20557;-81
2023/03/24 07:09:13;;;;;;;5.73;2.57;;;10.90;99.90;;;;;;5003497;28;20492;-84
2023/03/24 07:11:41;;;;;;;3.20;1.97;;;11.10;99.90;;;;;;5009093;28;20458;-83
2023/03/24 07:14:08;;;;;;;5.00;2.00;;;11.20;99.90;;;;;;5003890;28;20473;-83
2023/03/24 07:16:35;;;;;;;13.73;3.23;;;11.20;99.90;;;;;;5004184;28;20916;-85
2023/03/24 07:19:03;;;;;;;8.23;2.50;;;11.30;99.90;;;;;;5004081;28;20561;-83
2023/03/24 07:21:30;;;;;;;6.00;2.23;;;11.30;99.90;;;;;;4998152;28;20545;-82
2023/03/24 07:23:57;;;;;;;3.47;2.20;;;11.30;99.90;;;;;;5002435;28;20538;-87
2023/03/24 07:26:23;;;;;;;6.03;2.10;;;11.20;99.90;;;;;;4999212;28;21082;-83
2023/03/24 07:28:50;;;;;;;6.40;2.50;;;11.20;99.90;;;;;;4991057;28;20484;-85
2023/03/24 07:31:17;;;;;;;5.20;1.80;;;11.20;99.90;;;;;;4996568;28;20538;-86
2023/03/24 07:33:44;;;;;;;9.70;2.10;;;11.20;99.90;;;;;;5006661;28;20548;-83
2023/03/24 07:36:12;;;;;;;7.13;2.07;;;11.20;99.90;;;;;;4995047;28;20503;-81
2023/03/24 07:38:39;;;;;;;4.30;2.03;;;11.20;99.90;;;;;;4988552;28;20527;-83
2023/03/24 07:41:06;;;;;;;4.20;1.80;;;11.30;99.90;;;;;;4996331;28;20462;-82
2023/03/24 07:43:34;;;;;;;7.97;2.00;;;11.40;99.90;;;;;;4990254;28;20837;-83
2023/03/24 07:46:00;;;;;;;4.10;1.40;;;11.50;99.90;;;;;;4991459;28;20514;-83
2023/03/24 07:48:27;;;;;;;7.63;1.97;;;11.60;99.90;;;;;;4991036;28;20558;-83
2023/03/24 07:50:54;;;;;;;7.23;2.17;;;11.80;99.90;;;;;;4989869;28;20483;-83
2023/03/24 07:53:22;;;;;;;6.20;1.77;;;12.00;99.90;;;;;;4983970;28;20515;-82
2023/03/24 07:55:49;;;;;;;7.33;2.13;;;12.10;99.90;;;;;;4988238;28;20532;-82
2023/03/24 07:58:16;;;;;;;5.17;1.80;;;12.20;99.90;;;;;;4997337;28;20459;-82
2023/03/24 08:00:43;;;;;;;10.10;2.30;;;12.30;99.90;;;;;;4998169;28;20459;-81
2023/03/24 08:03:12;;;;;;;3.83;1.87;;;12.40;99.90;;;;;;4989196;28;20457;-82
2023/03/24 08:05:41;;;;;;;4.07;1.70;;;12.70;99.90;;;;;;4996544;28;20507;-82
2023/03/24 08:08:08;;;;;;;4.53;1.93;;;12.80;99.90;;;;;;4982812;28;20470;-82
2023/03/24 08:10:36;;;;;;;3.73;1.40;;;13.00;99.90;;;;;;4992113;28;20545;-83
2023/03/24 08:13:03;;;;;;;10.33;1.70;;;13.10;99.90;;;;;;4985949;28;20474;-83
2023/03/24 08:15:30;;;;;;;7.97;1.60;;;13.40;99.90;;;;;;4997364;28;20509;-83
2023/03/24 08:17:57;;;;;;;3.10;1.30;;;13.50;99.90;;;;;;4997077;28;20462;-83
2023/03/24 08:20:25;;;;;;;6.90;1.70;;;13.70;99.90;;;;;;4993021;28;20465;-83
2023/03/24 08:22:53;;;;;;;11.40;2.33;;;14.30;99.90;;;;;;4998711;28;20459;-81
2023/03/24 08:25:22;;;;;;;4.30;1.30;;;14.80;99.90;;;;;;4996619;28;20568;-83
2023/03/24 08:27:50;;;;;;;10.50;2.47;;;15.50;99.90;;;;;;5001661;28;20953;-84
2023/03/24 08:30:19;;;;;;;6.70;1.47;;;16.50;99.90;;;;;;4999713;28;20462;-83
2023/03/24 08:32:48;;;;;;;4.43;1.60;;;17.30;99.90;;;;;;4992557;28;20457;-81
2023/03/24 08:35:17;;;;;;;4.33;1.80;;;17.40;99.90;;;;;;4996391;28;20493;-82
2023/03/24 08:37:44;;;;;;;5.30;1.77;;;17.60;99.90;;;;;;4998888;28;20528;-81
2023/03/24 08:40:16;;;;;;;5.77;1.63;;;17.00;99.90;;;;;;4991167;28;20469;-82
2023/03/24 08:42:42;;;;;;;6.60;2.33;;;16.80;99.90;;;;;;4996085;28;20459;-84
2023/03/24 08:45:12;;;;;;;7.87;2.00;;;17.10;99.90;;;;;;4996444;28;20481;-82
2023/03/24 08:47:39;;;;;;;9.30;2.00;;;16.70;99.90;;;;;;4990193;28;20521;-83
2023/03/24 08:50:07;;;;;;;6.00;2.20;;;16.40;99.90;;;;;;5000158;28;20957;-83
2023/03/24 08:52:34;;;;;;;7.43;1.67;;;15.90;99.90;;;;;;4998124;28;20453;-82
2023/03/24 08:55:02;;;;;;;4.93;1.80;;;15.60;99.90;;;;;;4993491;28;20451;-82
2023/03/24 08:57:29;;;;;;;7.93;1.77;;;15.50;99.90;;;;;;4994509;28;20461;-82
2023/03/24 08:59:56;;;;;;;8.90;2.77;;;15.70;99.90;;;;;;4992049;28;20548;-85
2023/03/24 09:02:25;;;;;;;5.80;2.63;;;16.20;99.90;;;;;;4991994;28;20532;-81
2023/03/24 09:04:54;;;;;;;6.07;2.03;;;16.00;99.90;;;;;;4997573;28;20452;-84
2023/03/24 09:07:21;;;;;;;7.13;2.17;;;16.20;99.90;;;;;;5003528;28;20462;-83
2023/03/24 09:09:49;;;;;;;7.60;1.90;;;16.80;99.90;;;;;;5004333;28;20513;-83
2023/03/24 09:12:16;;;;;;;8.47;1.83;;;17.20;99.90;;;;;;5003088;28;20462;-85
2023/03/24 09:14:48;;;;;;;4.97;1.73;;;17.90;99.90;;;;;;4998981;28;20458;-82
2023/03/24 09:17:15;;;;;;;3.63;1.60;;;17.90;99.90;;;;;;4999303;28;20474;-83
2023/03/24 09:19:43;;;;;;;3.33;1.30;;;18.70;99.90;;;;;;5001777;28;20461;-83
2023/03/24 09:22:11;;;;;;;6.13;1.90;;;20.10;99.90;;;;;;4995400;28;20466;-82
2023/03/24 09:24:38;;;;;;;9.70;1.83;;;19.20;99.90;;;;;;4986227;28;20455;-83
2023/03/24 09:27:05;;;;;;;6.60;1.97;;;19.00;99.90;;;;;;4991257;28;20478;-83
2023/03/24 09:29:32;;;;;;;9.48;2.10;;;19.20;99.90;;;;;;4986952;28;21147;-85
2023/03/24 09:31:58;;;;;;;10.13;2.33;;;19.00;99.90;;;;;;4998773;28;20208;-81
2023/03/24 09:34:25;;;;;;;4.37;1.67;;;18.60;99.90;;;;;;4994020;28;20458;-84
2023/03/24 09:36:54;;;;;;;4.83;2.10;;;18.90;99.90;;;;;;4989149;28;20497;-83
2023/03/24 09:39:20;;;;;;;7.17;1.77;;;17.80;99.90;;;;;;4997349;28;20481;-83
2023/03/24 09:41:49;;;;;;;6.77;2.20;;;17.30;99.90;;;;;;4992914;28;20515;-84
2023/03/24 09:44:25;;;;;;;8.53;2.20;;;16.80;99.90;;;;;;5002474;28;20552;-83
2023/03/24 09:46:56;;;;;;;10.63;2.57;;;17.60;99.90;;;;;;4991071;28;20466;-82
2023/03/24 09:49:27;;;;;;;5.43;2.03;;;18.20;99.90;;;;;;4998604;28;20478;-82
2023/03/24 09:52:00;;;;;;;4.87;1.90;;;17.80;99.90;;;;;;4995068;28;20802;-83
2023/03/24 09:54:30;;;;;;;10.63;2.50;;;17.60;99.90;;;;;;4996094;28;20539;-82
2023/03/24 09:56:58;;;;;;;7.50;2.60;;;19.00;99.90;;;;;;4996419;28;20492;-84
2023/03/24 09:59:32;;;;;;;7.03;1.90;;;19.60;99.90;;;;;;5001231;28;20457;-84
2023/03/24 10:01:59;;;;;;;5.20;1.73;;;20.10;99.30;;;;;;4999470;28;20974;-83
2023/03/24 10:04:30;;;;;;;6.53;1.80;;;19.40;99.90;;;;;;4997652;28;20548;-84
2023/03/24 10:07:06;;;;;;;8.13;2.73;;;21.20;98.60;;;;;;5000154;28;20481;-83
2023/03/24 10:09:34;;;;;;;6.07;2.07;;;20.60;92.00;;;;;;5001091;28;20496;-82
2023/03/24 10:12:16;;;;;;;10.57;3.07;;;19.10;95.10;;;;;;4998876;28;20475;-82
2023/03/24 10:15:01;;;;;;;9.07;2.50;;;17.90;99.90;;;;;;4999476;28;20487;-82
2023/03/24 10:17:40;;;;;;;8.17;3.00;;;17.30;99.90;;;;;;5001782;28;20478;-84
2023/03/24 10:20:19;;;;;;;13.57;4.80;;;16.10;99.90;;;;;;4979499;28;20530;-81
2023/03/24 10:22:58;;;;;;;5.80;2.60;;;15.70;99.90;;;;;;4980336;28;20529;-81
2023/03/24 10:25:34;;;;;;;8.90;2.37;;;15.40;99.90;;;;;;4999435;28;20472;-83
2023/03/24 10:28:05;;;;;;;3.73;1.87;;;15.50;99.90;;;;;;4999553;28;20465;-82
2023/03/24 10:30:35;;;;;;;10.07;2.30;;;15.20;99.90;;;;;;4999467;28;20454;-84
2023/03/24 10:33:02;;;;;;;10.80;2.70;;;15.20;99.90;;;;;;5001538;28;20464;-83
2023/03/24 10:38:16;;;;;;;3.60;1.70;;;14.80;99.90;;;;;;5008766;28;20524;-80
2023/03/24 10:40:45;;;;;;;7.40;2.13;;;16.60;99.90;;;;;;5008189;28;20468;-79
2023/03/24 10:43:12;;;;;;;7.60;1.80;;;19.30;99.90;;;;;;5010022;28;20818;-81
2023/03/24 10:45:42;;;;;;;7.77;2.00;;;19.30;99.90;;;;;;5009751;28;20450;-80
2023/03/24 10:48:11;;;;;;;5.20;2.77;;;18.30;99.90;;;;;;5007212;28;20456;-79
2023/03/24 10:50:43;;;;;;;5.80;1.70;;;17.20;99.90;;;;;;5025863;28;20468;-81
2023/03/24 10:53:17;;;;;;;5.37;1.70;;;17.60;99.90;;;;;;5029312;28;20445;-80
2023/03/24 10:55:44;;;;;;;4.27;2.17;;;19.40;99.90;;;;;;5008194;28;20474;-83
2023/03/24 10:58:19;;;;;;;4.83;1.50;;;22.10;99.90;;;;;;5018310;28;20493;-80
2023/03/24 11:00:46;;;;;;;7.67;2.30;;;23.10;93.20;;;;;;5026741;28;20476;-81
2023/03/24 11:03:17;;;;;;;7.40;2.10;;;21.70;91.50;;;;;;5028254;28;20512;-81
2023/03/24 11:05:45;;;;;;;8.87;3.13;;;20.70;92.40;;;;;;5028501;28;20457;-83
2023/03/24 11:08:28;;;;;;;6.30;2.40;;;20.00;92.10;;;;;;5027882;28;20458;-83
2023/03/24 11:10:55;;;;;;;4.57;2.13;;;19.70;93.50;;;;;;5027867;28;20537;-83
2023/03/24 11:13:29;;;;;;;5.57;2.10;;;19.00;94.30;;;;;;5028021;28;20467;-83
2023/03/24 11:16:05;;;;;;;5.93;1.80;;;18.50;95.90;;;;;;5027846;28;21017;-83
2023/03/24 11:18:32;;;;;;;10.27;2.30;;;18.40;98.10;;;;;;5028055;28;20455;-82
2023/03/24 11:21:02;;;;;;;5.23;1.40;;;18.10;94.30;;;;;;5027445;28;20456;-81
2023/03/24 11:23:32;;;;;;;5.50;1.93;;;18.10;94.80;;;;;;5026255;28;20451;-82
2023/03/24 11:26:08;;;;;;;4.70;1.70;;;19.90;92.10;;;;;;5027346;28;20472;-84
2023/03/24 11:28:39;;;;;;;3.30;1.33;;;20.40;91.30;;;;;;5028293;28;20469;-81
2023/03/24 11:31:08;;;;;;;5.50;1.57;;;21.80;89.00;;;;;;5028214;28;21004;-84
2023/03/24 11:33:43;;;;;;;4.53;2.07;;;23.00;82.60;;;;;;5028828;28;20521;-86
2023/03/24 11:36:41;;;;;;;3.17;1.40;;;22.50;78.60;;;;;;5006139;28;20557;-82
2023/03/24 11:39:13;;;;;;;3.20;1.50;;;24.10;77.70;;;;;;5012477;28;20450;-83
2023/03/24 11:41:44;;;;;;;4.93;1.33;;;26.60;71.00;;;;;;5028644;28;20513;-85
2023/03/24 11:44:18;;;;;;;2.87;1.20;;;25.60;66.80;;;;;;5029946;28;20442;-84
2023/03/24 11:46:48;;;;;;;3.17;1.20;;;24.70;64.30;;;;;;5030561;28;20478;-82
2023/03/24 11:49:19;;;;;;;4.33;1.77;;;24.20;65.90;;;;;;5030627;28;20483;-83
2023/03/24 11:51:49;;;;;;;5.10;2.50;;;21.90;66.70;;;;;;5028197;28;20514;-86
2023/03/24 11:54:20;;;;;;;6.20;1.50;;;21.40;67.60;;;;;;5028673;28;20445;-82
2023/03/24 11:56:51;;;;;;;2.73;1.20;;;22.00;72.40;;;;;;5028300;28;21080;-83
2023/03/24 11:59:28;;;;;;;6.87;1.97;;;21.60;67.90;;;;;;5030162;28;20465;-83
2023/03/24 12:02:00;;;;;;;5.37;1.50;;;21.30;70.90;;;;;;5026869;28;20545;-84
2023/03/24 12:04:36;;;;;;;6.13;1.60;;;20.90;71.70;;;;;;5030067;28;20537;-84
2023/03/24 12:07:42;;;;;;;5.43;1.57;;;21.80;71.70;;;;;;5029433;28;20560;-83
2023/03/24 12:10:23;;;;;;;3.50;1.60;;;23.50;70.40;;;;;;4982893;28;20519;-82
2023/03/24 12:13:01;;;;;;;5.73;2.00;;;22.40;67.60;;;;;;5026101;28;20450;-83
2023/03/24 12:15:37;;;;;;;5.47;2.23;;;21.10;69.80;;;;;;5027869;28;20491;-81
2023/03/24 12:18:19;;;;;;;5.23;1.10;;;20.50;71.90;;;;;;5028366;28;20481;-81
2023/03/24 12:20:50;;;;;;;4.17;1.40;;;19.50;72.60;;;;;;5027513;28;20457;-81
2023/03/24 12:23:22;;;;;;;9.53;1.80;;;19.40;73.30;;;;;;5027957;28;20453;-82
2023/03/24 12:26:09;;;;;;;3.70;1.37;;;20.10;74.90;;;;;;5027558;28;20465;-82
2023/03/24 12:28:50;;;;;;;3.97;1.50;;;21.70;71.40;;;;;;5022022;28;20458;-84
2023/03/24 12:31:40;;;;;;;5.93;2.00;;;21.80;70.20;;;;;;5020577;28;20453;-82
2023/03/24 12:34:27;;;;;;;4.00;1.53;;;22.00;70.30;;;;;;5027983;28;20466;-81
2023/03/24 12:36:58;;;;;;;3.67;1.20;;;21.40;68.90;;;;;;5031305;28;20489;-83
2023/03/24 12:39:30;;;;;;;3.27;1.47;;;20.60;71.60;;;;;;5031480;28;20521;-83
2023/03/24 12:42:18;;;;;;;5.07;1.53;;;21.40;69.20;;;;;;5029778;28;20450;-81
2023/03/24 12:45:14;;;;;;;6.33;1.90;;;21.30;69.10;;;;;;5030570;28;20513;-83
2023/03/24 12:48:27;;;;;;;8.43;1.50;;;22.10;70.60;;;;;;5011295;28;20843;-83
2023/03/24 12:51:06;;;;;;;7.37;1.87;;;24.70;69.20;;;;;;5008936;28;20566;-84
2023/03/24 12:53:55;;;;;;;5.70;1.47;;;26.20;63.70;;;;;;5030953;28;20446;-85
2023/03/24 12:56:29;;;;;;;6.23;1.77;;;26.30;59.70;;;;;;5030424;28;20550;-82
2023/03/24 12:59:02;;;;;;;4.33;1.90;;;26.40;59.50;;;;;;5031672;28;20506;-82
2023/03/24 13:01:35;;;;;;;4.20;1.90;;;24.20;59.00;;;;;;5028621;28;20454;-85
2023/03/24 13:04:08;;;;;;;5.37;3.10;;;22.70;61.90;;;;;;5030692;28;21057;-81
2023/03/24 13:06:43;;;;;;;4.00;1.43;;;21.40;64.90;;;;;;5030910;28;20558;-82
2023/03/24 13:09:17;;;;;;;5.20;2.23;;;20.10;67.80;;;;;;5030271;28;20513;-81
2023/03/24 13:11:50;;;;;;;4.70;1.43;;;19.20;69.00;;;;;;5030751;28;20511;-84